createdAt,value
2023-09-23T00:00:19.435Z,0.90
2023-09-23T00:02:46.395Z,1.20
2023-09-23T00:05:16.420Z,1.20
2023-09-23T00:07:44.567Z,1.10
2023-09-23T00:10:12.300Z,1.07
2023-09-23T00:12:41.763Z,1.00
2023-09-23T00:15:11.789Z,1.20
2023-09-23T00:17:39.339Z,1.03
2023-09-23T00:20:17.627Z,1.10
2023-09-23T00:22:48.125Z,1.30
2023-09-23T00:25:20.202Z,1.50
2023-09-23T00:27:47.364Z,1.07
2023-09-23T00:30:14.599Z,1.20
2023-09-23T00:32:43.310Z,1.20
2023-09-23T00:35:13.150Z,1.27
2023-09-23T00:37:41.564Z,1.20
2023-09-23T00:40:14.678Z,1.20
2023-09-23T00:42:41.551Z,1.10
2023-09-23T00:45:15.997Z,1.00
2023-09-23T00:47:44.647Z,1.10
2023-09-23T00:50:18.693Z,1.40
2023-09-23T00:52:53.775Z,1.07
2023-09-23T00:55:21.906Z,1.03
2023-09-23T00:57:56.503Z,1.10
2023-09-23T01:00:26.577Z,1.00
2023-09-23T01:02:57.143Z,1.40
2023-09-23T01:05:28.215Z,1.20
2023-09-23T01:08:05.789Z,1.37
2023-09-23T01:10:32.882Z,1.10
2023-09-23T01:13:00.293Z,1.50
2023-09-23T01:15:29.824Z,1.17
2023-09-23T01:17:58.549Z,1.50
2023-09-23T01:20:26.865Z,1.20
2023-09-23T01:22:58.985Z,1.30
2023-09-23T01:25:26.738Z,1.30
2023-09-23T01:27:54.257Z,1.27
2023-09-23T01:30:22.728Z,1.33
2023-09-23T01:32:51.605Z,1.13
2023-09-23T01:35:21.422Z,1.20
2023-09-23T01:37:49.918Z,1.40
2023-09-23T01:40:20.172Z,1.40
2023-09-23T01:42:50.191Z,1.70
2023-09-23T01:45:18.566Z,1.60
2023-09-23T01:47:45.629Z,1.53
2023-09-23T01:50:14.681Z,1.40
2023-09-23T01:52:44.505Z,1.77
2023-09-23T01:55:14.028Z,1.53
2023-09-23T01:57:41.027Z,1.07
2023-09-23T02:00:16.064Z,1.30
2023-09-23T02:02:43.276Z,1.30
2023-09-23T02:05:10.266Z,1.40
2023-09-23T02:07:37.115Z,1.40
2023-09-23T02:10:04.169Z,1.30
2023-09-23T02:12:33.253Z,1.23
2023-09-23T02:15:00.098Z,1.70
2023-09-23T02:17:27.140Z,1.30
2023-09-23T02:19:54.985Z,1.30
2023-09-23T02:22:21.768Z,1.50
2023-09-23T02:24:48.546Z,1.30
2023-09-23T02:27:15.359Z,1.37
2023-09-23T02:29:42.283Z,1.60
2023-09-23T02:32:09.288Z,1.57
2023-09-23T02:34:38.094Z,1.20
2023-09-23T02:37:05.771Z,1.10
2023-09-23T02:39:32.724Z,1.20
2023-09-23T02:42:01.120Z,1.20
2023-09-23T02:44:31.129Z,1.23
2023-09-23T02:46:57.962Z,1.50
2023-09-23T02:49:24.880Z,1.30
2023-09-23T02:51:52.001Z,1.10
2023-09-23T02:54:18.805Z,1.37
2023-09-23T02:56:48.253Z,1.10
2023-09-23T02:59:16.834Z,1.40
2023-09-23T03:01:52.779Z,1.13
2023-09-23T03:04:26.499Z,1.10
2023-09-23T03:07:02.209Z,1.30
2023-09-23T03:09:33.678Z,1.07
2023-09-23T03:12:02.076Z,1.07
2023-09-23T03:14:44.285Z,1.10
2023-09-23T03:17:13.923Z,1.30
2023-09-23T03:19:40.892Z,1.17
2023-09-23T03:22:09.032Z,1.30
2023-09-23T03:24:36.152Z,1.30
2023-09-23T03:27:03.208Z,1.30
2023-09-23T03:29:32.268Z,1.53
2023-09-23T03:32:00.471Z,1.30
2023-09-23T03:34:27.816Z,1.43
2023-09-23T03:36:55.005Z,1.10
2023-09-23T03:39:23.111Z,1.20
2023-09-23T03:41:49.925Z,1.03
2023-09-23T03:44:17.652Z,1.10
2023-09-23T03:46:47.239Z,1.20
2023-09-23T03:49:14.109Z,1.37
2023-09-23T03:51:41.077Z,1.10
2023-09-23T03:54:08.052Z,1.50
2023-09-23T03:56:35.013Z,1.23
2023-09-23T03:59:02.694Z,1.13
2023-09-23T04:01:29.607Z,1.30
2023-09-23T04:03:57.773Z,1.10
2023-09-23T04:06:25.039Z,1.20
2023-09-23T04:08:51.856Z,1.43
2023-09-23T04:11:19.914Z,1.50
2023-09-23T04:13:46.759Z,1.40
2023-09-23T04:16:14.063Z,1.30
2023-09-23T04:18:44.328Z,1.37
2023-09-23T04:21:11.696Z,1.77
2023-09-23T04:23:39.310Z,1.17
2023-09-23T04:26:06.470Z,1.30
2023-09-23T04:28:33.290Z,1.40
2023-09-23T04:31:00.099Z,1.20
2023-09-23T04:33:29.045Z,1.17
2023-09-23T04:36:02.053Z,1.30
2023-09-23T04:38:28.851Z,1.40
2023-09-23T04:40:55.982Z,1.13
2023-09-23T04:43:22.925Z,1.67
2023-09-23T04:45:49.889Z,1.50
2023-09-23T04:48:19.392Z,1.50
2023-09-23T04:50:47.849Z,1.10
2023-09-23T04:53:14.841Z,1.37
2023-09-23T04:55:41.665Z,1.40
2023-09-23T04:58:09.900Z,1.37
2023-09-23T05:00:38.826Z,1.97
2023-09-23T05:03:06.969Z,1.50
2023-09-23T05:05:34.110Z,1.40
2023-09-23T05:08:01.243Z,1.30
2023-09-23T05:10:28.075Z,1.63
2023-09-23T05:12:57.501Z,1.30
2023-09-23T05:15:25.670Z,1.60
2023-09-23T05:17:55.689Z,1.50
2023-09-23T05:20:27.090Z,1.20
2023-09-23T05:22:55.089Z,1.37
2023-09-23T05:25:25.482Z,1.30
2023-09-23T05:27:56.452Z,1.40
2023-09-23T05:30:23.757Z,1.20
2023-09-23T05:32:51.147Z,1.43
2023-09-23T05:35:18.012Z,1.90
2023-09-23T05:37:45.240Z,1.10
2023-09-23T05:40:24.674Z,1.20
2023-09-23T05:42:52.239Z,1.30
2023-09-23T05:45:19.826Z,1.20
2023-09-23T05:47:47.134Z,1.20
2023-09-23T05:50:17.345Z,1.30
2023-09-23T05:52:46.922Z,1.30
2023-09-23T05:55:17.190Z,1.50
2023-09-23T05:57:44.207Z,1.50
2023-09-23T06:00:13.148Z,1.30
2023-09-23T06:02:40.518Z,1.30
2023-09-23T06:05:08.243Z,1.27
2023-09-23T06:07:35.192Z,1.43
2023-09-23T06:10:02.050Z,2.53
2023-09-23T06:12:32.884Z,2.40
2023-09-23T06:15:01.260Z,3.13
2023-09-23T06:17:29.590Z,2.10
2023-09-23T06:20:00.886Z,1.67
2023-09-23T06:22:28.665Z,2.93
2023-09-23T06:24:56.109Z,1.50
2023-09-23T06:27:23.071Z,2.00
2023-09-23T06:29:49.924Z,2.67
2023-09-23T06:32:16.820Z,2.10
2023-09-23T06:34:43.659Z,1.90
2023-09-23T06:37:10.522Z,1.60
2023-09-23T06:39:37.431Z,1.40
2023-09-23T06:42:04.417Z,1.50
2023-09-23T06:44:31.299Z,1.40
2023-09-23T06:46:59.787Z,1.47
2023-09-23T06:49:27.760Z,1.20
2023-09-23T06:51:54.603Z,1.40
2023-09-23T06:54:21.398Z,1.20
2023-09-23T06:56:48.329Z,1.40
2023-09-23T06:59:15.308Z,1.50
2023-09-23T07:01:42.222Z,2.17
2023-09-23T07:04:10.281Z,1.90
2023-09-23T07:06:37.141Z,1.50
2023-09-23T07:09:06.540Z,1.40
2023-09-23T07:11:33.449Z,1.50
2023-09-23T07:14:01.937Z,1.63
2023-09-23T07:16:29.066Z,1.60
2023-09-23T07:18:55.943Z,1.50
2023-09-23T07:21:22.800Z,1.93
2023-09-23T07:23:49.616Z,1.87
2023-09-23T07:26:21.678Z,1.30
2023-09-23T07:28:51.364Z,1.40
2023-09-23T07:31:18.963Z,1.50
2023-09-23T07:33:46.608Z,1.30
2023-09-23T07:36:14.046Z,1.50
2023-09-23T07:38:41.841Z,1.40
2023-09-23T07:41:08.743Z,1.73
2023-09-23T07:43:35.877Z,1.23
2023-09-23T07:46:02.717Z,1.30
2023-09-23T07:48:29.556Z,1.10
2023-09-23T07:50:56.554Z,1.50
2023-09-23T07:53:23.561Z,1.43
2023-09-23T07:55:50.724Z,1.27
2023-09-23T07:58:17.538Z,1.33
2023-09-23T08:00:44.431Z,1.40
2023-09-23T08:03:11.276Z,1.20
2023-09-23T08:05:38.205Z,1.33
2023-09-23T08:08:05.571Z,1.20
2023-09-23T08:10:32.404Z,1.70
2023-09-23T08:12:59.195Z,1.20
2023-09-23T08:15:25.961Z,1.20
2023-09-23T08:17:52.936Z,1.10
2023-09-23T08:20:21.397Z,1.10
2023-09-23T08:22:49.925Z,1.63
2023-09-23T08:25:19.030Z,1.40
2023-09-23T08:27:46.442Z,1.33
2023-09-23T08:30:14.281Z,1.20
2023-09-23T08:32:41.435Z,1.00
2023-09-23T08:35:09.050Z,1.10
2023-09-23T08:37:36.543Z,1.30
2023-09-23T08:40:13.149Z,1.20
2023-09-23T08:42:40.797Z,1.40
2023-09-23T08:45:12.122Z,1.30
2023-09-23T08:47:39.579Z,1.27
2023-09-23T08:50:18.854Z,1.20
2023-09-23T08:52:45.716Z,1.57
2023-09-23T08:55:13.112Z,1.33
2023-09-23T08:57:39.948Z,1.43
2023-09-23T09:00:09.846Z,1.60
2023-09-23T09:02:36.884Z,1.40
2023-09-23T09:05:06.706Z,1.20
2023-09-23T09:07:38.126Z,1.60
2023-09-23T09:10:12.152Z,1.40
2023-09-23T09:12:39.090Z,1.10
2023-09-23T09:15:09.927Z,1.40
2023-09-23T09:17:36.825Z,1.20
2023-09-23T09:20:10.722Z,1.20
2023-09-23T09:22:39.117Z,1.37
2023-09-23T09:25:06.482Z,1.27
2023-09-23T09:27:33.230Z,1.40
2023-09-23T09:30:12.588Z,1.13
2023-09-23T09:32:45.325Z,1.30
2023-09-23T09:35:15.205Z,1.27
2023-09-23T09:37:47.754Z,1.00
2023-09-23T09:40:19.812Z,1.40
2023-09-23T09:42:55.262Z,1.20
2023-09-23T09:45:23.269Z,1.20
2023-09-23T09:47:53.146Z,1.20
2023-09-23T09:50:23.455Z,1.37
2023-09-23T09:52:50.581Z,1.30
2023-09-23T09:55:21.076Z,1.30
2023-09-23T09:57:49.260Z,1.53
2023-09-23T10:00:35.599Z,1.30
2023-09-23T10:03:03.717Z,1.40
2023-09-23T10:05:35.109Z,0.90
2023-09-23T10:08:14.129Z,1.57
2023-09-23T10:10:49.357Z,1.43
2023-09-23T10:13:16.863Z,1.37
2023-09-23T10:15:44.449Z,1.17
2023-09-23T10:18:17.489Z,1.20
2023-09-23T10:20:51.817Z,2.33
2023-09-23T10:23:21.061Z,1.13
2023-09-23T10:25:53.565Z,1.07
2023-09-23T10:28:23.150Z,1.50
2023-09-23T10:31:04.888Z,1.20
2023-09-23T10:33:40.717Z,1.30
2023-09-23T10:36:08.586Z,1.30
2023-09-23T10:38:38.975Z,1.23
2023-09-23T10:41:06.101Z,1.30
2023-09-23T10:43:35.356Z,1.40
2023-09-23T10:46:03.352Z,1.37
2023-09-23T10:48:31.151Z,1.70
2023-09-23T10:50:58.550Z,1.30
2023-09-23T10:53:29.412Z,1.60
2023-09-23T10:55:59.185Z,1.80
2023-09-23T10:58:30.797Z,1.40
2023-09-23T11:00:58.510Z,1.33
2023-09-23T11:03:25.948Z,1.80
2023-09-23T11:05:53.271Z,1.33
2023-09-23T11:08:20.137Z,1.70
2023-09-23T11:10:49.011Z,1.47
2023-09-23T11:13:17.158Z,1.87
2023-09-23T11:15:46.429Z,1.80
2023-09-23T11:18:18.279Z,1.30
2023-09-23T11:20:47.798Z,1.20
2023-09-23T11:23:15.397Z,1.20
2023-09-23T11:25:45.961Z,1.33
2023-09-23T11:28:19.934Z,1.37
2023-09-23T11:30:47.892Z,1.10
2023-09-23T11:33:15.209Z,1.73
2023-09-23T11:35:43.185Z,1.53
2023-09-23T11:38:11.028Z,1.50
2023-09-23T11:40:38.953Z,2.03
2023-09-23T11:43:06.491Z,1.70
2023-09-23T11:45:34.000Z,1.60
2023-09-23T11:48:01.356Z,1.37
2023-09-23T11:50:28.673Z,1.10
2023-09-23T11:52:55.611Z,1.30
2023-09-23T11:55:28.071Z,1.60
2023-09-23T11:58:00.587Z,1.60
2023-09-23T12:00:27.497Z,1.20
2023-09-23T12:02:54.421Z,1.20
2023-09-23T12:05:22.013Z,1.60
2023-09-23T12:07:48.993Z,1.13
2023-09-23T12:10:18.717Z,1.90
2023-09-23T12:12:48.146Z,1.40
2023-09-23T12:15:15.200Z,1.53
2023-09-23T12:17:42.270Z,1.23
2023-09-23T12:20:12.935Z,1.10
2023-09-23T12:22:40.214Z,1.30
2023-09-23T12:25:07.890Z,1.47
2023-09-23T12:27:35.137Z,1.80
2023-09-23T12:30:02.191Z,1.70
2023-09-23T12:32:29.863Z,1.50
2023-09-23T12:34:56.782Z,1.43
2023-09-23T12:37:27.973Z,1.17
2023-09-23T12:39:57.014Z,1.50
2023-09-23T12:42:27.056Z,1.23
2023-09-23T12:44:53.826Z,1.17
2023-09-23T12:47:20.603Z,1.50
2023-09-23T12:49:47.557Z,1.33
2023-09-23T12:52:14.532Z,1.40
2023-09-23T12:54:41.337Z,1.50
2023-09-23T12:57:08.205Z,1.60
2023-09-23T12:59:35.055Z,1.40
2023-09-23T13:02:01.939Z,1.27
2023-09-23T13:04:29.803Z,1.30
2023-09-23T13:06:56.878Z,1.30
2023-09-23T13:09:23.719Z,1.30
2023-09-23T13:11:50.589Z,1.40
2023-09-23T13:14:18.141Z,1.30
2023-09-23T13:16:47.403Z,1.30
2023-09-23T13:19:16.481Z,1.20
2023-09-23T13:21:43.391Z,1.37
2023-09-23T13:24:10.409Z,1.40
2023-09-23T13:26:39.838Z,1.43
2023-09-23T13:29:06.615Z,1.43
2023-09-23T13:31:33.446Z,1.30
2023-09-23T13:34:00.249Z,1.53
2023-09-23T13:36:27.233Z,1.60
2023-09-23T13:38:54.172Z,1.33
2023-09-23T13:41:21.032Z,1.30
2023-09-23T13:43:48.040Z,1.50
2023-09-23T13:46:14.930Z,1.90
2023-09-23T13:48:41.950Z,2.10
2023-09-23T13:51:09.557Z,1.40
2023-09-23T13:53:36.558Z,1.33
2023-09-23T13:56:03.547Z,1.40
2023-09-23T13:58:30.631Z,1.20
2023-09-23T14:00:57.535Z,1.57
2023-09-23T14:03:24.522Z,1.63
2023-09-23T14:05:51.496Z,1.50
2023-09-23T14:08:18.326Z,1.40
2023-09-23T14:10:45.118Z,1.10
2023-09-23T14:13:11.998Z,1.33
2023-09-23T14:15:38.811Z,1.40
2023-09-23T14:18:08.431Z,1.30
2023-09-23T14:20:36.015Z,1.27
2023-09-23T14:23:03.065Z,1.37
2023-09-23T14:25:30.352Z,1.40
2023-09-23T14:27:57.267Z,1.60
2023-09-23T14:30:24.068Z,1.40
2023-09-23T14:32:50.985Z,1.33
2023-09-23T14:35:20.064Z,1.60
2023-09-23T14:37:48.680Z,1.53
2023-09-23T14:40:15.648Z,1.50
2023-09-23T14:42:42.505Z,1.17
2023-09-23T14:45:10.187Z,2.00
2023-09-23T14:47:38.240Z,1.17
2023-09-23T14:50:05.536Z,1.77
2023-09-23T14:52:33.390Z,1.17
2023-09-23T14:55:00.184Z,1.53
2023-09-23T14:57:27.971Z,1.70
2023-09-23T14:59:54.898Z,1.83
2023-09-23T15:02:21.951Z,1.30
2023-09-23T15:04:48.893Z,1.03
2023-09-23T15:07:19.202Z,1.40
2023-09-23T15:09:46.455Z,1.83
2023-09-23T15:12:13.303Z,1.30
2023-09-23T15:14:40.065Z,1.63
2023-09-23T15:17:07.631Z,1.80
2023-09-23T15:19:34.406Z,1.60
2023-09-23T15:22:01.154Z,1.73
2023-09-23T15:24:27.920Z,1.40
2023-09-23T15:26:54.890Z,1.40
2023-09-23T15:29:23.857Z,1.50
2023-09-23T15:31:50.765Z,1.30
2023-09-23T15:34:18.054Z,1.83
2023-09-23T15:36:45.164Z,1.10
2023-09-23T15:39:12.028Z,2.10
2023-09-23T15:41:39.442Z,1.13
2023-09-23T15:44:06.435Z,1.83
2023-09-23T15:46:33.231Z,1.20
2023-09-23T15:49:00.099Z,1.47
2023-09-23T15:51:27.123Z,1.40
2023-09-23T15:53:53.914Z,1.40
2023-09-23T15:56:20.776Z,1.40
2023-09-23T15:58:47.780Z,2.40
2023-09-23T16:01:15.154Z,3.00
2023-09-23T16:03:42.134Z,2.93
2023-09-23T16:06:10.710Z,2.40
2023-09-23T16:08:37.552Z,1.70
2023-09-23T16:11:06.206Z,1.30
2023-09-23T16:13:33.422Z,1.50
2023-09-23T16:16:00.550Z,1.20
2023-09-23T16:18:27.574Z,1.33
2023-09-23T16:20:54.539Z,1.30
2023-09-23T16:23:21.372Z,1.23
2023-09-23T16:25:48.206Z,1.30
2023-09-23T16:28:14.971Z,1.87
2023-09-23T16:30:43.153Z,1.20
2023-09-23T16:33:10.312Z,1.27
2023-09-23T16:35:37.222Z,1.33
2023-09-23T16:38:05.026Z,1.23
2023-09-23T16:40:31.858Z,1.67
2023-09-23T16:42:58.789Z,1.33
2023-09-23T16:45:25.622Z,1.40
2023-09-23T16:47:52.569Z,1.40
2023-09-23T16:50:19.425Z,1.20
2023-09-23T16:52:46.230Z,1.30
2023-09-23T16:55:13.021Z,1.10
2023-09-23T16:57:40.087Z,1.23
2023-09-23T17:00:08.812Z,1.10
2023-09-23T17:02:35.893Z,1.60
2023-09-23T17:05:02.809Z,1.60
2023-09-23T17:07:29.746Z,1.30
2023-09-23T17:09:56.582Z,1.50
2023-09-23T17:12:23.423Z,1.53
2023-09-23T17:14:50.274Z,1.60
2023-09-23T17:17:17.155Z,1.30
2023-09-23T17:19:44.178Z,1.47
2023-09-23T17:22:11.122Z,1.50
2023-09-23T17:24:38.252Z,1.20
2023-09-23T17:27:05.717Z,1.73
2023-09-23T17:29:33.385Z,1.60
2023-09-23T17:32:00.664Z,1.97
2023-09-23T17:34:27.560Z,1.70
2023-09-23T17:36:54.589Z,1.73
2023-09-23T17:39:22.643Z,2.10
2023-09-23T17:41:50.080Z,1.93
2023-09-23T17:44:16.954Z,1.50
2023-09-23T17:46:46.032Z,2.40
2023-09-23T17:49:13.734Z,2.37
2023-09-23T17:51:40.602Z,2.87
2023-09-23T17:54:07.753Z,1.87
2023-09-23T17:56:35.430Z,1.77
2023-09-23T17:59:02.366Z,1.90
2023-09-23T18:01:29.174Z,2.10
2023-09-23T18:03:56.190Z,1.93
2023-09-23T18:06:23.100Z,1.93
2023-09-23T18:08:49.915Z,2.03
2023-09-23T18:11:16.898Z,2.17
2023-09-23T18:13:43.827Z,3.40
2023-09-23T18:16:10.703Z,2.10
2023-09-23T18:18:38.063Z,1.97
2023-09-23T18:21:04.874Z,1.80
2023-09-23T18:23:32.970Z,1.70
2023-09-23T18:25:59.776Z,1.87
2023-09-23T18:28:27.128Z,1.40
2023-09-23T18:30:53.884Z,1.50
2023-09-23T18:33:20.891Z,1.50
2023-09-23T18:35:48.352Z,1.40
2023-09-23T18:38:15.274Z,1.60
2023-09-23T18:40:42.050Z,1.60
2023-09-23T18:43:11.038Z,1.50
2023-09-23T18:45:38.016Z,1.47
2023-09-23T18:48:23.585Z,1.40
2023-09-23T18:50:52.317Z,1.50
2023-09-23T18:53:19.338Z,1.53
2023-09-23T18:55:46.459Z,1.53
2023-09-23T18:58:13.430Z,1.93
2023-09-23T19:00:41.031Z,1.80
2023-09-23T19:03:08.562Z,1.77
2023-09-23T19:05:36.352Z,2.17
2023-09-23T19:08:04.056Z,1.53
2023-09-23T19:10:30.917Z,1.87
2023-09-23T19:12:57.659Z,1.50
2023-09-23T19:15:24.547Z,1.67
2023-09-23T19:17:52.236Z,1.37
2023-09-23T19:20:19.433Z,1.70
2023-09-23T19:22:46.868Z,2.77
2023-09-23T19:25:13.824Z,2.43
2023-09-23T19:27:43.708Z,2.73
2023-09-23T19:30:14.284Z,1.63
2023-09-23T19:32:41.537Z,1.47
2023-09-23T19:35:09.092Z,1.97
2023-09-23T19:37:36.602Z,2.00
2023-09-23T19:40:04.254Z,2.50
2023-09-23T19:42:31.916Z,5.97
2023-09-23T19:45:01.596Z,5.23
2023-09-23T19:47:28.776Z,5.30
2023-09-23T19:49:58.326Z,2.77
2023-09-23T19:52:25.235Z,1.93
2023-09-23T19:54:52.430Z,1.70
2023-09-23T19:57:19.280Z,1.70
2023-09-23T19:59:46.181Z,1.43
2023-09-23T20:02:13.461Z,1.70
2023-09-23T20:04:42.328Z,1.50
2023-09-23T20:07:09.190Z,1.37
2023-09-23T20:09:36.477Z,2.33
2023-09-23T20:12:04.441Z,2.50
2023-09-23T20:14:31.332Z,2.40
2023-09-23T20:16:58.106Z,1.83
2023-09-23T20:19:24.893Z,1.80
2023-09-23T20:21:51.810Z,1.40
2023-09-23T20:24:18.735Z,1.40
2023-09-23T20:26:49.048Z,1.20
2023-09-23T20:29:17.351Z,1.40
2023-09-23T20:31:44.365Z,1.80
2023-09-23T20:34:11.135Z,2.30
2023-09-23T20:36:38.388Z,1.53
2023-09-23T20:39:05.812Z,2.13
2023-09-23T20:41:32.751Z,1.63
2023-09-23T20:44:04.152Z,1.73
2023-09-23T20:46:32.820Z,1.97
2023-09-23T20:49:00.534Z,1.60
2023-09-23T20:51:27.395Z,1.60
2023-09-23T20:53:55.927Z,1.73
2023-09-23T20:56:22.899Z,2.00
2023-09-23T20:58:49.958Z,1.63
2023-09-23T21:01:16.749Z,1.80
2023-09-23T21:03:43.762Z,1.90
2023-09-23T21:06:10.630Z,2.17
2023-09-23T21:08:37.585Z,2.37
2023-09-23T21:11:04.405Z,1.70
2023-09-23T21:13:31.216Z,1.83
2023-09-23T21:16:04.242Z,1.70
2023-09-23T21:18:31.231Z,1.83
2023-09-23T21:20:58.272Z,1.70
2023-09-23T21:23:25.170Z,1.83
2023-09-23T21:25:53.557Z,1.67
2023-09-23T21:28:20.458Z,1.90
2023-09-23T21:30:47.319Z,2.07
2023-09-23T21:33:14.354Z,1.93
2023-09-23T21:35:42.238Z,1.80
2023-09-23T21:38:09.236Z,1.70
2023-09-23T21:40:43.501Z,1.80
2023-09-23T21:43:10.263Z,1.60
2023-09-23T21:45:39.789Z,1.63
2023-09-23T21:48:08.625Z,1.50
2023-09-23T21:50:36.098Z,1.57
2023-09-23T21:53:03.765Z,1.30
2023-09-23T21:55:30.664Z,1.63
2023-09-23T21:57:57.685Z,1.50
2023-09-23T22:00:28.079Z,1.63
2023-09-23T22:03:00.485Z,1.70
2023-09-23T22:05:29.780Z,1.50
2023-09-23T22:07:59.439Z,1.37
2023-09-23T22:10:27.837Z,1.60
2023-09-23T22:12:57.033Z,1.50
2023-09-23T22:15:25.564Z,1.20
2023-09-23T22:17:52.373Z,1.97
2023-09-23T22:20:21.493Z,1.37
2023-09-23T22:22:49.297Z,1.50
2023-09-23T22:25:16.474Z,1.30
2023-09-23T22:27:43.748Z,1.40
2023-09-23T22:30:14.760Z,1.87
2023-09-23T22:32:42.826Z,1.30
2023-09-23T22:35:14.198Z,1.37
2023-09-23T22:37:44.029Z,1.40
2023-09-23T22:40:15.378Z,1.80
2023-09-23T22:42:42.851Z,1.53
2023-09-23T22:45:17.621Z,2.00
2023-09-23T22:47:50.847Z,1.63
2023-09-23T22:50:19.491Z,1.67
2023-09-23T22:52:46.267Z,1.43
2023-09-23T22:55:14.532Z,1.63
2023-09-23T22:57:42.611Z,1.87
2023-09-23T23:00:14.703Z,1.93
2023-09-23T23:02:45.894Z,1.50
2023-09-23T23:05:13.118Z,1.70
2023-09-23T23:07:40.514Z,1.87
2023-09-23T23:10:12.309Z,1.80
2023-09-23T23:12:40.436Z,1.60
2023-09-23T23:15:09.774Z,1.30
2023-09-23T23:17:36.637Z,1.57
2023-09-23T23:20:10.950Z,1.60
2023-09-23T23:22:38.652Z,1.67
2023-09-23T23:25:06.373Z,1.47
2023-09-23T23:27:33.363Z,1.60
2023-09-23T23:30:00.239Z,1.60
2023-09-23T23:32:27.066Z,1.60
2023-09-23T23:34:53.902Z,1.73
2023-09-23T23:37:21.142Z,1.57
2023-09-23T23:39:48.285Z,2.70
2023-09-23T23:42:16.925Z,1.60
2023-09-23T23:44:50.771Z,1.27
2023-09-23T23:47:17.910Z,1.70
2023-09-23T23:49:49.320Z,1.43
2023-09-23T23:52:17.732Z,1.43
2023-09-23T23:54:45.523Z,1.43
2023-09-23T23:57:16.337Z,1.70
2023-09-23T23:59:44.380Z,1.40
